createdAt,value
2022-10-17T00:18:59.959Z,229
2022-10-17T00:39:00.261Z,232
2022-10-17T00:59:00.440Z,234
2022-10-17T01:18:59.881Z,227
2022-10-17T01:39:00.365Z,232
2022-10-17T01:59:00.326Z,232
2022-10-17T02:19:00.303Z,234
2022-10-17T02:39:00.272Z,231
2022-10-17T02:59:00.257Z,231
2022-10-17T03:18:59.719Z,232
2022-10-17T03:39:00.001Z,231
2022-10-17T03:59:00.171Z,232
2022-10-17T04:19:00.162Z,227
2022-10-17T04:39:00.188Z,227
2022-10-17T04:58:59.910Z,236
2022-10-17T05:19:00.085Z,236
2022-10-17T05:39:00.053Z,238
2022-10-17T05:59:01.111Z,234
2022-10-17T06:18:59.500Z,241
2022-10-17T06:38:59.973Z,238
2022-10-17T06:58:59.450Z,245
2022-10-17T07:18:59.934Z,243
2022-10-17T07:38:59.411Z,240
2022-10-17T07:59:00.687Z,230
2022-10-17T08:18:59.922Z,244
2022-10-17T08:38:59.318Z,241
2022-10-17T08:58:59.774Z,238
2022-10-17T09:18:59.767Z,232
2022-10-17T09:38:59.234Z,231
2022-10-17T09:58:59.504Z,228
2022-10-17T10:18:59.663Z,239
2022-10-17T10:39:01.182Z,226
2022-10-17T10:58:59.107Z,230
2022-10-17T11:18:59.086Z,241
2022-10-17T11:38:59.550Z,239
2022-10-17T11:58:59.518Z,231
2022-10-17T12:18:59.482Z,227
2022-10-17T12:38:59.461Z,237
2022-10-17T12:58:59.441Z,234
2022-10-17T13:18:59.396Z,238
2022-10-17T13:38:59.375Z,246
2022-10-17T13:58:59.346Z,248
2022-10-17T14:18:59.331Z,243
2022-10-17T14:38:58.804Z,236
2022-10-17T14:58:59.268Z,247
2022-10-17T15:18:59.232Z,246
2022-10-17T15:38:59.225Z,239
2022-10-17T15:58:58.994Z,238
2022-10-17T16:18:59.149Z,239
2022-10-17T16:38:59.124Z,232
2022-10-17T16:58:59.109Z,242
2022-10-17T17:18:59.073Z,244
2022-10-17T17:38:59.045Z,245
2022-10-17T17:58:59.018Z,262
2022-10-17T18:19:01.499Z,246
2022-10-17T18:38:58.964Z,257
2022-10-17T18:58:58.736Z,261
2022-10-17T19:18:58.918Z,256
2022-10-17T19:38:58.895Z,258
2022-10-17T19:58:58.858Z,256
2022-10-17T20:18:58.320Z,244
2022-10-17T20:38:58.800Z,256
2022-10-17T20:58:58.782Z,255
2022-10-17T21:18:58.761Z,253
2022-10-17T21:38:58.774Z,253
2022-10-17T21:58:58.710Z,249
2022-10-17T22:19:01.685Z,257
2022-10-17T22:38:58.639Z,244
2022-10-17T22:58:58.125Z,256
2022-10-17T23:18:58.594Z,250
2022-10-17T23:38:58.756Z,247
2022-10-17T23:58:58.526Z,250
